Towanda, Kansas
Current Conditions -  °F | °C
As of 9:15 AM on Monday 24 Nov 2014 (Local Time) from KEQA Reporting Station
Clear Clear  
Wind Chill: 32°   Ceiling: Unl
Heat Index: 41°   Visibility: 10mi
Dew Point: 27°   Wind: 18mph
Humidity: 57%   Direction: 290°WNW
Pressure: 29.82"   Gusts: 22mph
Location:  37.8°N, 97°W
Report Text: KEQA 241515Z AUTO 29016G19KT 10SM CLR 05/M03 A2982 RMK AO2
Loading
Personal Weather Stations






























Interactive Weather Map New forecast layout! Learn more

10-Day Weather Forecast

Advertisements
Track Severe Weather on mobile